Time;durP1;ratioP1;P1;durP2;ratioP2;P2;SDS_P1;SDS_P2;PMS_P1;PMS_P2;Temp;Humidity;BMP_temperature;BMP_pressure;BME280_temperature;BME280_humidity;BME280_pressure;Samples;Min_cycle;Max_cycle;Signal;HPM_P1;HPM_P2
2022/04/20 00:02:07;;;;;;;7.40;4.70;;;;;;;10.31;52.93;101517.78;5002075;28;20521;-62
2022/04/20 00:04:33;;;;;;;6.68;4.53;;;;;;;10.27;52.88;101521.75;5015306;28;20033;-62
2022/04/20 00:06:58;;;;;;;7.25;4.70;;;;;;;10.17;53.07;101517.31;5007759;28;20425;-62
2022/04/20 00:09:23;;;;;;;7.10;4.85;;;;;;;10.12;53.70;101514.28;5012864;28;20033;-61
2022/04/20 00:11:49;;;;;;;6.28;4.50;;;;;;;10.08;53.61;101515.56;5012263;28;20474;-62
2022/04/20 00:14:14;;;;;;;11.10;5.00;;;;;;;10.06;53.77;101517.53;5012604;28;20026;-62
2022/04/20 00:16:39;;;;;;;7.93;4.97;;;;;;;10.04;53.86;101516.84;5006515;28;20489;-62
2022/04/20 00:19:04;;;;;;;8.00;5.13;;;;;;;9.97;54.13;101507.00;5009557;28;20469;-62
2022/04/20 00:21:30;;;;;;;7.72;4.50;;;;;;;9.97;54.15;101515.78;5007187;28;20051;-62
2022/04/20 00:23:55;;;;;;;6.75;4.78;;;;;;;9.95;54.39;101517.75;5006213;28;20037;-62
2022/04/20 00:26:20;;;;;;;6.22;5.18;;;;;;;9.89;54.81;101515.72;5008747;28;20118;-62
2022/04/20 00:28:46;;;;;;;11.82;4.93;;;;;;;9.83;54.74;101511.84;5005526;28;20017;-61
2022/04/20 00:31:11;;;;;;;8.68;5.25;;;;;;;9.82;54.91;101511.97;5012086;28;20497;-61
2022/04/20 00:33:37;;;;;;;7.47;4.80;;;;;;;9.78;54.98;101515.91;5015696;28;20030;-62
2022/04/20 00:36:03;;;;;;;7.38;4.97;;;;;;;9.73;55.16;101520.81;5015051;28;20082;-61
2022/04/20 00:38:29;;;;;;;9.13;4.75;;;;;;;9.70;55.14;101516.66;5013791;28;20121;-61
2022/04/20 00:40:55;;;;;;;7.78;5.00;;;;;;;9.67;55.34;101518.75;5010233;28;20116;-62
2022/04/20 00:43:21;;;;;;;7.50;5.10;;;;;;;9.66;55.40;101519.75;5010102;28;20057;-63
2022/04/20 00:45:47;;;;;;;8.25;4.95;;;;;;;9.60;55.61;101518.53;5018124;28;20445;-62
2022/04/20 00:48:12;;;;;;;9.18;5.20;;;;;;;9.52;55.94;101521.06;5013649;28;20445;-62
2022/04/20 00:50:39;;;;;;;7.32;4.82;;;;;;;9.48;56.15;101527.63;5019575;28;20481;-61
2022/04/20 00:53:04;;;;;;;6.60;4.88;;;;;;;9.49;55.94;101532.78;5018867;28;20040;-61
2022/04/20 00:55:30;;;;;;;5.43;4.75;;;;;;;9.45;55.91;101522.63;5009737;28;20021;-61
2022/04/20 00:57:55;;;;;;;5.75;5.05;;;;;;;9.43;56.00;101521.94;5005816;28;20121;-62
2022/04/20 01:00:20;;;;;;;9.52;5.07;;;;;;;9.40;56.04;101525.72;5006822;28;20567;-62
2022/04/20 01:02:46;;;;;;;8.13;5.00;;;;;;;9.37;56.28;101528.66;5006706;28;20038;-62
2022/04/20 01:05:13;;;;;;;9.77;4.85;;;;;;;9.32;56.39;101526.47;5009813;28;20105;-62
2022/04/20 01:07:40;;;;;;;6.18;4.72;;;;;;;9.32;56.26;101530.94;5020904;28;20022;-62
2022/04/20 01:10:05;;;;;;;10.48;5.25;;;;;;;9.30;56.21;101530.25;5008303;28;20026;-62
2022/04/20 01:12:31;;;;;;;6.55;5.15;;;;;;;9.26;56.39;101532.34;5015150;28;20033;-62
2022/04/20 01:14:56;;;;;;;7.95;5.28;;;;;;;9.21;56.27;101526.63;5010627;28;20096;-61
2022/04/20 01:17:22;;;;;;;8.02;4.93;;;;;;;9.21;56.28;101529.28;5005290;28;20034;-62
2022/04/20 01:19:47;;;;;;;9.02;5.15;;;;;;;9.17;56.56;101524.41;5004193;28;20048;-61
2022/04/20 01:22:12;;;;;;;11.82;4.82;;;;;;;9.13;56.61;101523.88;5019458;28;20029;-61
2022/04/20 01:24:39;;;;;;;7.30;5.50;;;;;;;9.12;56.66;101530.16;5010302;28;20021;-62
2022/04/20 01:27:06;;;;;;;6.78;4.70;;;;;;;9.12;56.49;101521.38;5016851;28;20078;-62
2022/04/20 01:29:33;;;;;;;8.35;5.22;;;;;;;9.06;56.64;101527.25;5009997;28;20061;-62
2022/04/20 01:31:58;;;;;;;8.27;4.35;;;;;;;9.04;56.75;101529.22;5016951;28;20034;-62
2022/04/20 01:34:23;;;;;;;8.55;4.88;;;;;;;9.03;56.68;101531.03;5010711;28;20032;-61
2022/04/20 01:36:49;;;;;;;7.55;4.88;;;;;;;9.04;56.56;101531.84;5019679;28;20382;-62
2022/04/20 01:39:15;;;;;;;6.63;4.78;;;;;;;9.00;56.53;101534.78;5013515;28;20034;-61
2022/04/20 01:41:41;;;;;;;6.60;4.72;;;;;;;8.95;56.58;101531.72;5020574;28;20033;-62
2022/04/20 01:44:07;;;;;;;7.72;5.00;;;;;;;8.90;56.71;101536.59;5000176;28;20474;-62
2022/04/20 01:46:32;;;;;;;6.88;4.97;;;;;;;8.78;56.67;101513.09;5007003;28;20023;-61
2022/04/20 01:48:59;;;;;;;7.18;4.85;;;;;;;8.87;56.75;101538.72;5006452;28;20097;-62
2022/04/20 01:54:08;;;;;;;8.95;5.20;;;;;;;8.82;56.63;101527.72;5009295;28;20049;-62
2022/04/20 01:56:33;;;;;;;6.00;4.75;;;;;;;8.79;56.86;101536.78;5013537;28;20014;-62
2022/04/20 01:58:59;;;;;;;12.38;5.63;;;;;;;8.76;57.03;101537.06;5017375;28;20476;-62
2022/04/20 02:04:08;;;;;;;6.40;5.10;;;;;;;8.67;56.69;101532.59;5008263;28;20087;-63
2022/04/20 02:06:33;;;;;;;7.90;5.03;;;;;;;8.61;56.76;101530.53;5005577;28;20025;-62
2022/04/20 02:08:59;;;;;;;8.25;5.00;;;;;;;8.62;57.05;101543.63;5004975;28;20770;-62
2022/04/20 02:11:24;;;;;;;8.05;5.40;;;;;;;8.54;57.20;101546.13;5010930;28;20029;-62
2022/04/20 02:13:49;;;;;;;6.30;4.82;;;;;;;8.54;57.18;101535.53;5012255;28;20104;-62
2022/04/20 02:16:15;;;;;;;7.53;5.13;;;;;;;8.50;57.25;101535.97;5019640;28;20593;-63
2022/04/20 02:18:40;;;;;;;6.30;5.03;;;;;;;8.47;57.24;101533.59;5013490;28;20481;-62
2022/04/20 02:21:05;;;;;;;8.52;5.05;;;;;;;8.42;56.93;101536.69;5010839;28;20038;-62
2022/04/20 02:23:30;;;;;;;8.35;4.85;;;;;;;8.36;57.35;101532.75;5010779;28;20478;-62
2022/04/20 02:25:56;;;;;;;7.05;4.90;;;;;;;8.35;57.36;101530.25;5009730;28;20033;-63
2022/04/20 02:28:22;;;;;;;8.40;5.53;;;;;;;8.29;57.48;101536.91;5010371;28;20040;-62
2022/04/20 02:30:47;;;;;;;6.60;5.18;;;;;;;8.29;57.59;101536.06;5015013;28;20029;-62
2022/04/20 02:33:12;;;;;;;7.68;5.13;;;;;;;8.27;57.65;101533.56;5022782;28;20040;-62
2022/04/20 02:35:39;;;;;;;9.10;4.95;;;;;;;8.24;57.63;101533.84;5008515;28;20029;-62
2022/04/20 02:38:06;;;;;;;6.57;5.07;;;;;;;8.21;57.71;101528.84;5008842;28;20080;-61
2022/04/20 02:40:32;;;;;;;8.13;5.47;;;;;;;8.19;57.78;101535.25;5008050;28;20037;-63
2022/04/20 02:42:57;;;;;;;9.32;5.30;;;;;;;8.19;58.00;101529.94;5012981;28;20025;-62
2022/04/20 02:45:23;;;;;;;7.78;5.22;;;;;;;8.17;57.72;101523.97;5013743;28;20056;-62
2022/04/20 02:47:48;;;;;;;8.20;5.53;;;;;;;8.14;58.03;101533.00;5008218;28;20021;-62
2022/04/20 02:50:14;;;;;;;9.70;5.28;;;;;;;8.08;57.89;101529.06;5007910;28;20030;-62
2022/04/20 02:52:39;;;;;;;6.43;5.30;;;;;;;8.08;57.99;101541.47;5011521;28;20048;-63
2022/04/20 02:55:05;;;;;;;11.20;5.25;;;;;;;8.07;58.11;101545.09;5012197;28;20502;-62
2022/04/20 02:57:30;;;;;;;8.32;5.10;;;;;;;8.06;58.46;101546.06;5009954;28;20485;-63
2022/04/20 02:59:55;;;;;;;7.35;5.30;;;;;;;8.01;58.20;101551.75;5011039;28;20025;-62
2022/04/20 03:02:21;;;;;;;5.85;4.90;;;;;;;8.00;58.25;101543.97;5006615;28;20040;-62
2022/04/20 03:04:46;;;;;;;9.32;5.25;;;;;;;7.95;58.23;101547.03;5018341;28;20121;-61
2022/04/20 03:07:11;;;;;;;10.20;5.05;;;;;;;7.96;58.38;101547.88;5011522;28;20034;-62
2022/04/20 03:09:36;;;;;;;5.93;5.07;;;;;;;7.94;58.73;101553.28;5012754;28;20018;-61
2022/04/20 03:12:02;;;;;;;11.48;6.05;;;;;;;7.91;58.68;101548.28;5007116;28;20034;-61
2022/04/20 03:14:27;;;;;;;6.75;5.40;;;;;;;7.90;58.62;101548.41;5014067;28;20026;-63
2022/04/20 03:16:52;;;;;;;6.75;5.00;;;;;;;7.92;58.62;101549.94;5007234;28;20034;-63
2022/04/20 03:19:18;;;;;;;9.55;5.65;;;;;;;7.89;58.49;101544.09;5020051;28;20112;-61
2022/04/20 03:21:43;;;;;;;9.48;5.68;;;;;;;7.88;58.54;101556.50;5008815;28;20038;-62
2022/04/20 03:24:09;;;;;;;6.05;5.10;;;;;;;7.86;58.48;101549.66;5014329;28;20428;-62
2022/04/20 03:26:34;;;;;;;7.13;5.43;;;;;;;7.84;58.51;101554.25;5009289;28;20088;-62
2022/04/20 03:28:59;;;;;;;6.72;5.30;;;;;;;7.86;58.35;101557.59;5008029;28;20386;-62
2022/04/20 03:31:25;;;;;;;12.52;5.75;;;;;;;7.82;58.44;101561.50;5014698;28;20045;-62
2022/04/20 03:33:50;;;;;;;7.47;5.30;;;;;;;7.83;58.29;101568.44;5015067;28;20107;-61
2022/04/20 03:36:15;;;;;;;9.25;5.40;;;;;;;7.81;58.35;101563.28;5012757;28;20033;-62
2022/04/20 03:38:41;;;;;;;9.95;4.85;;;;;;;7.81;58.35;101567.75;5007591;28;20029;-62
2022/04/20 03:41:06;;;;;;;7.47;5.25;;;;;;;7.74;58.28;101565.63;5007262;28;20478;-62
2022/04/20 03:43:32;;;;;;;8.63;5.30;;;;;;;7.73;58.35;101560.47;5008461;28;20037;-65
2022/04/20 03:45:58;;;;;;;7.65;5.40;;;;;;;7.68;58.52;101563.50;5008210;28;20033;-63
2022/04/20 03:48:23;;;;;;;8.13;5.05;;;;;;;7.67;58.38;101569.78;5008176;28;20034;-62
2022/04/20 03:50:49;;;;;;;7.72;5.15;;;;;;;7.66;58.58;101567.25;5013124;28;20028;-61
2022/04/20 03:53:15;;;;;;;7.63;5.28;;;;;;;7.60;58.56;101566.00;5010490;28;20030;-62
2022/04/20 03:55:40;;;;;;;8.88;5.35;;;;;;;7.60;58.55;101567.81;5012899;28;20043;-62
2022/04/20 03:58:05;;;;;;;8.95;5.30;;;;;;;7.60;58.56;101566.00;5026116;28;20025;-62
2022/04/20 04:00:31;;;;;;;8.77;5.20;;;;;;;7.58;58.67;101564.47;5020980;28;20113;-62
2022/04/20 04:02:57;;;;;;;7.47;5.35;;;;;;;7.56;58.62;101564.59;5005120;28;20596;-62
2022/04/20 04:05:22;;;;;;;6.63;5.20;;;;;;;7.57;58.67;101568.91;5007066;28;20034;-61
2022/04/20 04:07:48;;;;;;;9.20;5.30;;;;;;;7.58;58.55;101577.69;5016612;28;20426;-62
2022/04/20 04:10:13;;;;;;;10.18;5.22;;;;;;;7.53;58.60;101566.66;5008866;28;20018;-62
2022/04/20 04:12:39;;;;;;;9.57;5.70;;;;;;;7.46;58.68;101569.81;5016639;28;20318;-62
2022/04/20 04:15:06;;;;;;;7.00;5.30;;;;;;;7.45;58.75;101575.25;5008873;28;20576;-62
2022/04/20 04:17:32;;;;;;;9.10;5.73;;;;;;;7.46;58.96;101571.63;5007397;28;20041;-62
2022/04/20 04:19:57;;;;;;;8.93;5.43;;;;;;;7.45;58.95;101577.88;5009353;28;20029;-63
2022/04/20 04:22:22;;;;;;;8.27;5.13;;;;;;;7.45;58.84;101575.25;5006640;28;20451;-65
2022/04/20 04:24:48;;;;;;;8.40;5.10;;;;;;;7.46;58.77;101575.09;5019724;28;20028;-61
2022/04/20 04:27:13;;;;;;;9.13;5.30;;;;;;;7.36;58.72;101574.22;5024559;28;20025;-62
2022/04/20 04:29:39;;;;;;;9.57;5.43;;;;;;;7.37;58.82;101570.63;5009703;28;20105;-62
2022/04/20 04:32:05;;;;;;;9.83;5.20;;;;;;;7.33;58.76;101574.50;5010919;28;20041;-62
2022/04/20 04:34:30;;;;;;;7.17;5.23;;;;;;;7.31;58.79;101576.44;5011570;28;20564;-62
2022/04/20 04:36:56;;;;;;;7.70;5.57;;;;;;;7.27;58.98;101576.84;5010408;28;20037;-64
2022/04/20 04:39:22;;;;;;;10.63;5.93;;;;;;;7.24;59.09;101585.88;5007121;28;20498;-62
2022/04/20 04:41:48;;;;;;;7.45;5.45;;;;;;;7.20;59.25;101587.06;5017063;28;20033;-62
2022/04/20 04:44:14;;;;;;;11.30;5.60;;;;;;;7.24;59.45;101588.50;5016119;28;20052;-61
2022/04/20 04:49:23;;;;;;;12.40;5.63;;;;;;;7.27;59.67;101592.69;5009918;28;20044;-62
2022/04/20 04:51:49;;;;;;;7.90;5.43;;;;;;;7.22;59.61;101590.41;5013616;28;20026;-62
2022/04/20 04:54:14;;;;;;;7.47;5.37;;;;;;;7.23;59.87;101599.16;5011770;28;20017;-62
2022/04/20 04:56:40;;;;;;;8.57;5.40;;;;;;;7.23;59.95;101610.59;5008740;28;20105;-62
2022/04/20 04:59:05;;;;;;;9.33;5.50;;;;;;;7.22;59.98;101603.63;4997758;28;20401;-61
2022/04/20 05:01:30;;;;;;;8.70;5.70;;;;;;;7.25;59.91;101608.66;5000617;28;20123;-62
2022/04/20 05:03:55;;;;;;;7.93;5.93;;;;;;;7.28;59.77;101613.69;5007744;28;20477;-61
2022/04/20 05:06:21;;;;;;;11.77;5.60;;;;;;;7.30;59.89;101616.19;5006377;28;20262;-62
2022/04/20 05:08:46;;;;;;;7.95;5.65;;;;;;;7.33;59.95;101613.28;5004561;28;20378;-62
2022/04/20 05:11:12;;;;;;;16.70;6.13;;;;;;;7.32;59.97;101609.81;5011954;28;20585;-62
2022/04/20 05:13:37;;;;;;;7.80;5.60;;;;;;;7.33;59.45;101621.22;5005135;28;20120;-62
2022/04/20 05:16:03;;;;;;;28.50;6.60;;;;;;;7.36;60.13;101620.97;5020128;28;20095;-63
2022/04/20 05:18:28;;;;;;;12.07;5.80;;;;;;;7.44;60.23;101626.41;5011617;28;20239;-62
2022/04/20 05:20:53;;;;;;;8.80;5.63;;;;;;;7.47;60.30;101628.78;5005801;28;20030;-62
2022/04/20 05:23:18;;;;;;;9.23;5.75;;;;;;;7.52;60.42;101623.97;5020116;28;20517;-62
2022/04/20 05:25:44;;;;;;;9.50;5.93;;;;;;;7.60;60.34;101629.44;5023523;28;20592;-62
2022/04/20 05:28:09;;;;;;;9.43;5.47;;;;;;;7.64;60.50;101627.38;5019864;28;20037;-62
2022/04/20 05:30:35;;;;;;;9.03;5.70;;;;;;;7.71;60.70;101631.97;5028443;28;20025;-62
2022/04/20 05:33:01;;;;;;;9.63;5.97;;;;;;;7.83;60.70;101631.91;5023572;28;20030;-62
2022/04/20 05:35:26;;;;;;;8.63;5.65;;;;;;;7.91;60.60;101637.34;5011686;28;20037;-62
2022/04/20 05:43:19;;;;;;;9.73;6.07;;;;;;;8.18;59.91;101626.16;5008005;28;20040;-62
2022/04/20 05:45:45;;;;;;;10.15;5.80;;;;;;;8.27;59.76;101634.13;5012450;28;20034;-63
2022/04/20 05:48:10;;;;;;;8.25;5.78;;;;;;;8.33;59.72;101630.09;5012983;28;20611;-62
2022/04/20 05:50:35;;;;;;;8.85;5.97;;;;;;;8.38;59.31;101636.69;5017210;28;20561;-62
2022/04/20 05:53:00;;;;;;;9.63;6.32;;;;;;;8.36;59.40;101622.72;5018148;28;20116;-64
2022/04/20 05:55:26;;;;;;;9.50;5.72;;;;;;;8.47;59.24;101634.19;5016191;28;20074;-62
2022/04/20 05:57:52;;;;;;;12.23;5.90;;;;;;;8.55;59.23;101632.53;5028931;28;20487;-63
2022/04/20 06:00:18;;;;;;;7.88;5.28;;;;;;;8.54;59.01;101614.13;5027838;28;20168;-61
2022/04/20 06:02:43;;;;;;;8.45;5.55;;;;;;;8.73;58.31;101634.50;5004917;28;20028;-62
2022/04/20 06:05:09;;;;;;;14.60;5.57;;;;;;;8.83;58.69;101630.84;5022194;28;20040;-61
2022/04/20 06:07:34;;;;;;;11.27;5.82;;;;;;;8.96;58.85;101630.56;5021298;28;20034;-62
2022/04/20 06:09:59;;;;;;;10.18;5.25;;;;;;;9.05;57.97;101639.50;5020351;28;20037;-62
2022/04/20 06:12:25;;;;;;;7.97;5.53;;;;;;;9.11;58.10;101642.41;5025668;28;20022;-62
2022/04/20 06:14:50;;;;;;;8.35;5.80;;;;;;;9.18;57.68;101640.88;5023537;28;20039;-62
2022/04/20 06:17:16;;;;;;;7.38;5.60;;;;;;;9.23;57.68;101635.13;5014306;28;20410;-62
2022/04/20 06:19:41;;;;;;;17.40;5.60;;;;;;;9.33;57.35;101622.72;5010553;28;20030;-61
2022/04/20 06:22:07;;;;;;;20.63;6.50;;;;;;;9.42;57.48;101626.31;5003997;28;20064;-61
2022/04/20 06:24:32;;;;;;;8.27;5.40;;;;;;;9.47;56.89;101629.38;5020139;28;20080;-61
2022/04/20 06:26:57;;;;;;;11.15;5.70;;;;;;;9.49;56.31;101628.25;5006801;28;20029;-62
2022/04/20 06:29:23;;;;;;;9.20;5.28;;;;;;;9.58;56.50;101630.03;5018855;28;20022;-61
2022/04/20 06:31:48;;;;;;;12.05;5.10;;;;;;;9.70;56.28;101630.69;5006824;28;20038;-61
2022/04/20 06:34:13;;;;;;;7.70;5.05;;;;;;;9.79;56.02;101635.09;5007556;28;20053;-61
2022/04/20 06:36:39;;;;;;;9.15;5.15;;;;;;;9.89;55.77;101640.41;5006129;28;20061;-61
2022/04/20 06:39:04;;;;;;;7.88;5.43;;;;;;;10.02;55.92;101638.22;5004915;28;20393;-61
2022/04/20 06:41:29;;;;;;;10.60;5.10;;;;;;;10.12;55.41;101636.38;5005582;28;20029;-61
2022/04/20 06:43:56;;;;;;;12.38;5.40;;;;;;;10.22;55.39;101631.03;5004705;28;20131;-61
2022/04/20 06:46:21;;;;;;;9.75;5.38;;;;;;;10.25;54.66;101636.03;5004342;28;20026;-61
2022/04/20 06:48:46;;;;;;;8.43;5.55;;;;;;;10.37;54.56;101634.00;5001686;28;20595;-61
2022/04/20 06:51:12;;;;;;;9.73;5.40;;;;;;;10.47;54.59;101640.09;5006351;28;20068;-61
2022/04/20 06:58:31;;;;;;;13.68;5.03;;;;;;;10.67;53.62;101646.09;5008962;28;20041;-61
2022/04/20 06:59:13;;;;;;;10.57;5.35;;;;;;;10.81;53.78;101643.75;5019894;28;20072;-61
2022/04/20 07:01:38;;;;;;;9.80;5.18;;;;;;;10.86;53.20;101649.44;5022610;28;20025;-61
2022/04/20 07:04:03;;;;;;;7.55;4.95;;;;;;;10.96;53.25;101640.53;5020538;28;20427;-61
2022/04/20 07:06:29;;;;;;;8.50;5.30;;;;;;;11.04;53.25;101643.28;5017814;28;20033;-61
2022/04/20 07:08:54;;;;;;;9.40;5.00;;;;;;;11.15;52.81;101645.69;5014031;28;20105;-61
2022/04/20 07:11:20;;;;;;;10.52;5.25;;;;;;;11.25;52.74;101641.09;5018648;28;20026;-61
2022/04/20 07:13:48;;;;;;;10.98;5.10;;;;;;;11.30;52.25;101638.84;5018500;28;20540;-62
2022/04/20 07:16:14;;;;;;;9.73;4.93;;;;;;;11.38;51.94;101641.53;5010243;28;20029;-62
2022/04/20 07:18:39;;;;;;;10.38;5.28;;;;;;;11.53;52.51;101643.63;5004035;28;20430;-61
2022/04/20 07:21:04;;;;;;;8.35;5.00;;;;;;;11.63;52.01;101633.72;5007962;28;20034;-61
2022/04/20 07:23:30;;;;;;;10.40;5.30;;;;;;;11.78;52.62;101638.31;5007172;28;20038;-61
2022/04/20 07:25:55;;;;;;;11.48;4.82;;;;;;;11.89;51.80;101641.72;5003699;28;20033;-61
2022/04/20 07:28:20;;;;;;;7.80;4.97;;;;;;;11.98;51.44;101646.06;5004912;28;20033;-61
2022/04/20 07:30:45;;;;;;;7.30;4.82;;;;;;;12.03;51.30;101646.41;5009608;28;20084;-61
2022/04/20 07:33:14;;;;;;;8.38;4.72;;;;;;;12.20;51.39;101653.47;5019621;28;20110;-60
2022/04/20 07:35:39;;;;;;;7.35;4.93;;;;;;;12.19;50.10;101650.97;5010121;28;20482;-61
2022/04/20 07:38:04;;;;;;;7.90;4.75;;;;;;;12.19;50.10;101656.31;5003045;28;20022;-61
2022/04/20 07:40:31;;;;;;;10.05;5.28;;;;;;;12.30;50.08;101658.66;5015794;28;20564;-61
2022/04/20 07:42:57;;;;;;;12.43;4.90;;;;;;;12.43;50.34;101650.19;5018719;28;20026;-61
2022/04/20 07:45:26;;;;;;;8.10;4.57;;;;;;;12.55;49.89;101655.06;5012579;28;20512;-61
2022/04/20 07:47:55;;;;;;;7.45;4.72;;;;;;;12.65;49.59;101668.25;5022625;28;20280;-61
2022/04/20 07:50:24;;;;;;;;;;;;;;;12.75;49.30;101660.09;5015698;28;21461;-61
2022/04/20 07:52:55;;;;;;;8.65;4.68;;;;;;;12.75;48.28;101662.78;5024629;28;19915;-60
2022/04/20 07:55:31;;;;;;;9.55;4.78;;;;;;;12.79;48.60;101656.13;5019423;28;20423;-61
2022/04/20 07:57:59;;;;;;;9.23;4.30;;;;;;;12.91;48.23;101666.28;5009919;28;20246;-61
2022/04/20 08:00:25;;;;;;;8.07;4.35;;;;;;;12.95;47.77;101654.28;5008946;28;20385;-61
2022/04/20 08:03:07;;;;;;;7.20;4.50;;;;;;;13.08;48.10;101659.13;5016089;28;20025;-61
2022/04/20 08:05:32;;;;;;;8.32;4.53;;;;;;;13.21;47.88;101659.47;5015686;28;20025;-60
2022/04/20 08:07:58;;;;;;;6.70;4.68;;;;;;;13.30;48.04;101663.00;5013001;28;20879;-61
2022/04/20 08:10:23;;;;;;;7.97;4.40;;;;;;;13.37;48.09;101663.16;5006253;28;20041;-61
2022/04/20 08:12:48;;;;;;;7.75;4.32;;;;;;;13.45;48.45;101663.97;5007815;28;20509;-61
2022/04/20 08:15:14;;;;;;;8.48;4.53;;;;;;;13.42;46.99;101664.31;5016416;28;20024;-62
2022/04/20 08:17:39;;;;;;;8.57;4.45;;;;;;;13.52;47.10;101666.78;5018164;28;20036;-61
2022/04/20 08:20:07;;;;;;;8.55;4.57;;;;;;;13.51;46.60;101657.94;5014884;28;20116;-61
2022/04/20 08:22:33;;;;;;;8.57;4.25;;;;;;;13.62;46.53;101657.59;5009987;28;20084;-61
2022/04/20 08:25:02;;;;;;;19.75;4.65;;;;;;;13.72;46.51;101659.25;5013191;28;20052;-60
2022/04/20 08:27:27;;;;;;;;;;;;;;;13.80;46.11;101665.38;5016053;28;20493;-60
2022/04/20 08:29:53;;;;;;;8.95;4.00;;;;;;;13.70;45.88;101662.06;5012299;28;19939;-61
2022/04/20 08:32:19;;;;;;;11.23;4.40;;;;;;;13.75;45.51;101666.91;5012108;28;20026;-61
2022/04/20 08:34:45;;;;;;;9.57;4.07;;;;;;;13.74;45.96;101670.56;5013080;28;20030;-61
2022/04/20 08:37:11;;;;;;;5.43;4.25;;;;;;;13.83;45.52;101675.72;5011544;28;20053;-61
2022/04/20 08:39:38;;;;;;;8.38;4.40;;;;;;;13.94;45.59;101669.19;5013224;28;20472;-60
2022/04/20 08:42:06;;;;;;;9.55;4.40;;;;;;;14.00;44.78;101667.66;5008566;28;20076;-61
2022/04/20 08:44:35;;;;;;;12.85;4.75;;;;;;;14.07;45.01;101668.63;5013339;28;20118;-61
2022/04/20 08:47:02;;;;;;;8.55;4.20;;;;;;;14.15;44.83;101673.94;5001650;28;20014;-60
2022/04/20 08:49:27;;;;;;;7.10;4.68;;;;;;;14.25;44.93;101672.72;5017410;28;20469;-61
2022/04/20 08:54:37;;;;;;;11.85;4.60;;;;;;;14.39;43.92;101662.28;5021081;28;20536;-61
2022/04/20 08:57:15;;;;;;;8.52;4.22;;;;;;;14.42;43.73;101664.63;5015231;28;20030;-61
2022/04/20 08:59:43;;;;;;;5.95;4.45;;;;;;;14.43;43.43;101656.44;5011594;28;20125;-61
2022/04/20 09:02:10;;;;;;;10.48;4.50;;;;;;;14.51;42.75;101661.78;5011636;28;20022;-61
2022/04/20 09:04:35;;;;;;;6.78;4.47;;;;;;;14.55;42.67;101657.72;5014351;28;20335;-61
2022/04/20 09:07:03;;;;;;;6.70;4.65;;;;;;;14.65;42.57;101654.81;5011726;28;20575;-61
2022/04/20 09:09:30;;;;;;;6.93;4.40;;;;;;;14.71;42.57;101659.44;5011106;28;20032;-61
2022/04/20 09:11:59;;;;;;;8.18;4.25;;;;;;;14.83;42.08;101649.19;5018392;28;20083;-61
2022/04/20 09:14:28;;;;;;;7.25;4.03;;;;;;;14.93;41.49;101652.44;5017066;28;20033;-61
2022/04/20 09:16:57;;;;;;;8.00;4.40;;;;;;;14.94;41.13;101656.78;5020422;28;20507;-61
2022/04/20 09:19:26;;;;;;;6.40;4.00;;;;;;;15.04;41.62;101652.03;5015274;28;20033;-61
2022/04/20 09:21:55;;;;;;;7.50;3.90;;;;;;;15.16;41.44;101653.25;5021735;28;20037;-61
2022/04/20 09:24:20;;;;;;;8.50;4.20;;;;;;;15.19;40.83;101647.53;5018889;28;20045;-61
2022/04/20 09:26:54;;;;;;;10.23;3.67;;;;;;;15.42;41.00;101654.72;5010813;28;20192;-61
2022/04/20 09:29:20;;;;;;;9.45;3.70;;;;;;;15.62;40.75;101652.38;5010375;28;20021;-61
2022/04/20 09:31:48;;;;;;;7.80;3.95;;;;;;;15.62;39.99;101642.50;5023175;28;20033;-61
2022/04/20 09:34:28;;;;;;;5.50;3.75;;;;;;;15.63;39.35;101641.47;5016498;28;20500;-61
2022/04/20 09:36:55;;;;;;;8.32;3.80;;;;;;;15.64;39.68;101631.59;5024315;28;20029;-61
2022/04/20 09:39:20;;;;;;;9.98;4.30;;;;;;;15.77;39.63;101637.13;5007496;28;20021;-61
2022/04/20 09:41:55;;;;;;;16.25;3.58;;;;;;;16.01;39.63;101639.50;5006739;28;20037;-61
2022/04/20 09:44:22;;;;;;;5.15;3.13;;;;;;;16.24;39.23;101635.88;5007412;28;20022;-61
2022/04/20 09:49:56;;;;;;;4.82;3.55;;;;;;;16.60;38.80;101635.84;5007996;28;20068;-61
2022/04/20 09:52:23;;;;;;;7.93;3.53;;;;;;;16.63;38.57;101630.09;5003836;28;20672;-62
2022/04/20 09:54:53;;;;;;;5.40;3.40;;;;;;;16.76;38.00;101638.31;4999979;28;20030;-61
2022/04/20 09:57:20;;;;;;;33.10;4.43;;;;;;;16.85;38.30;101634.50;5005830;28;20202;-61
2022/04/20 09:59:55;;;;;;;6.45;3.33;;;;;;;16.98;37.85;101637.28;5008773;28;20070;-61
2022/04/20 10:02:20;;;;;;;15.55;3.10;;;;;;;17.12;37.57;101629.34;5004041;28;20026;-61
2022/04/20 10:04:47;;;;;;;6.10;2.90;;;;;;;17.15;36.63;101620.91;5006609;28;20271;-62
2022/04/20 10:07:13;;;;;;;4.28;2.90;;;;;;;17.04;36.75;101625.75;5003037;28;20030;-61
2022/04/20 10:09:38;;;;;;;5.38;2.92;;;;;;;17.11;36.99;101622.34;5007287;28;20100;-61
2022/04/20 10:12:05;;;;;;;6.50;2.38;;;;;;;17.21;36.78;101617.44;5002607;28;20582;-62
2022/04/20 10:17:21;;;;;;;8.57;3.08;;;;;;;17.08;35.28;101615.50;5009534;28;20165;-62
2022/04/20 10:19:47;;;;;;;3.95;2.55;;;;;;;17.13;35.93;101613.06;5016433;28;20369;-61
2022/04/20 10:22:17;;;;;;;3.75;2.70;;;;;;;17.38;35.91;101615.31;5011511;28;20417;-62
2022/04/20 10:24:46;;;;;;;4.75;2.50;;;;;;;17.56;36.13;101604.88;5003928;28;20033;-62
2022/04/20 10:27:21;;;;;;;6.40;2.40;;;;;;;17.79;36.67;101599.25;5005191;28;20032;-62
2022/04/20 10:29:58;;;;;;;3.53;2.58;;;;;;;17.88;36.35;101598.03;5000735;28;20109;-62
2022/04/20 10:32:25;;;;;;;4.30;2.70;;;;;;;17.89;35.34;101597.84;5011734;28;20493;-62
2022/04/20 10:34:52;;;;;;;4.47;2.70;;;;;;;17.99;35.17;101599.34;5003765;28;20060;-61
2022/04/20 10:37:20;;;;;;;4.03;3.00;;;;;;;17.91;34.94;101597.63;5009621;28;21264;-61
2022/04/20 10:39:47;;;;;;;4.30;2.85;;;;;;;17.93;34.65;101584.84;5009849;28;20029;-62
2022/04/20 10:42:12;;;;;;;5.65;3.00;;;;;;;18.08;35.38;101590.88;5016388;28;20022;-61
2022/04/20 10:44:56;;;;;;;5.68;2.88;;;;;;;18.13;34.84;101598.34;5015213;28;20026;-61
2022/04/20 10:47:26;;;;;;;6.47;2.88;;;;;;;17.99;34.55;101594.78;5008934;28;20061;-62
2022/04/20 10:49:52;;;;;;;3.38;2.92;;;;;;;17.93;34.73;101591.06;5009694;28;20040;-62
2022/04/20 10:52:36;;;;;;;4.65;2.80;;;;;;;18.10;34.53;101596.88;5016830;28;20033;-62
2022/04/20 10:55:01;;;;;;;3.92;2.80;;;;;;;18.20;34.99;101588.44;5024549;28;20032;-62
2022/04/20 10:57:35;;;;;;;5.15;2.58;;;;;;;18.38;35.15;101591.38;5019399;28;20393;-62
2022/04/20 11:00:21;;;;;;;3.70;2.28;;;;;;;18.36;34.31;101580.00;5013038;28;20119;-62
2022/04/20 11:02:48;;;;;;;7.53;2.72;;;;;;;18.21;34.20;101569.44;5012485;28;20037;-62
2022/04/20 11:05:15;;;;;;;7.20;2.70;;;;;;;18.27;34.45;101579.38;5015134;28;20088;-62
2022/04/20 11:08:00;;;;;;;10.45;3.00;;;;;;;18.36;34.68;101579.19;5014010;28;20052;-62
2022/04/20 11:10:27;;;;;;;7.35;2.92;;;;;;;18.44;34.23;101576.28;5010305;28;20053;-61
2022/04/20 11:21:07;;;;;;;5.35;3.25;;;;;;;18.40;34.52;101559.75;5010372;28;20036;-62
2022/04/20 11:23:52;;;;;;;4.85;3.40;;;;;;;18.39;34.50;101550.00;5019123;28;20029;-62
2022/04/20 11:26:21;;;;;;;5.57;3.40;;;;;;;18.27;34.84;101554.34;5012517;28;20497;-62
2022/04/20 11:28:48;;;;;;;3.13;2.83;;;;;;;18.31;35.13;101546.69;5009456;28;20030;-62
2022/04/20 11:31:14;;;;;;;5.78;3.45;;;;;;;18.22;34.51;101546.06;5003344;28;20099;-62
2022/04/20 11:33:39;;;;;;;6.07;3.30;;;;;;;18.23;34.98;101531.59;5021117;28;20492;-62
2022/04/20 11:36:05;;;;;;;4.35;2.95;;;;;;;18.15;35.10;101532.59;5015856;28;20195;-62
2022/04/20 11:38:42;;;;;;;4.05;3.08;;;;;;;18.16;34.57;101546.84;5014231;28;20025;-62
2022/04/20 11:41:09;;;;;;;10.20;3.10;;;;;;;18.08;34.36;101529.06;5022688;28;20022;-63
2022/04/20 11:43:36;;;;;;;5.30;3.10;;;;;;;18.12;34.38;101535.69;5014922;28;20061;-62
2022/04/20 11:46:02;;;;;;;7.43;3.33;;;;;;;18.16;34.61;101536.09;5014865;28;20018;-62
2022/04/20 11:48:28;;;;;;;4.80;3.33;;;;;;;18.32;34.49;101529.53;5008292;28;20083;-62
2022/04/20 11:50:58;;;;;;;25.88;3.92;;;;;;;18.50;35.04;101532.44;5012016;28;20033;-62
2022/04/20 11:53:40;;;;;;;7.10;2.97;;;;;;;18.64;34.86;101536.00;5018514;28;20026;-62
2022/04/20 11:56:15;;;;;;;3.90;2.90;;;;;;;18.71;34.42;101529.56;5009435;28;20111;-62
2022/04/20 11:58:41;;;;;;;6.40;3.10;;;;;;;18.76;34.17;101528.94;5006542;28;20021;-62
2022/04/20 12:01:07;;;;;;;5.60;2.97;;;;;;;18.80;34.48;101522.97;5007955;28;20026;-62